Time;durP1;ratioP1;P1;durP2;ratioP2;P2;SDS_P1;SDS_P2;PMS_P1;PMS_P2;Temp;Humidity;BMP_temperature;BMP_pressure;BME280_temperature;BME280_humidity;BME280_pressure;Samples;Min_cycle;Max_cycle;Signal;HPM_P1;HPM_P2
2023/04/22 00:00:20;;;;;;;3.03;2.73;;;;;;;;;;5092321;28;20247;-87
2023/04/22 00:02:49;;;;;;;7.43;4.33;;;;;;;;;;5092583;28;20214;-87
2023/04/22 00:05:19;;;;;;;2.03;1.83;;;;;;;;;;5093001;28;20258;-87
2023/04/22 00:07:48;;;;;;;3.90;3.50;;;;;;;;;;5092440;28;20250;-87
2023/04/22 00:10:16;;;;;;;5.20;4.73;;;;;;;;;;5092080;28;20253;-87
2023/04/22 00:12:45;;;;;;;3.20;2.97;;;;;;;;;;5092528;28;20200;-88
2023/04/22 00:15:14;;;;;;;4.50;4.20;;;;;;;;;;5092523;28;20220;-87
2023/04/22 00:17:44;;;;;;;0.90;0.90;;;;;;;;;;5092081;28;20205;-86
2023/04/22 00:20:14;;;;;;;0.83;0.83;;;;;;;;;;5092751;28;20247;-86
2023/04/22 00:22:43;;;;;;;4.97;2.70;;;;;;;;;;5092427;28;20291;-86
2023/04/22 00:25:12;;;;;;;6.33;4.30;;;;;;;;;;5092251;28;20299;-86
2023/04/22 00:27:40;;;;;;;9.60;7.90;;;;;;;;;;5092370;28;20274;-86
2023/04/22 00:30:09;;;;;;;19.43;14.30;;;;;;;;;;5092466;28;20201;-87
2023/04/22 00:32:38;;;;;;;25.93;18.37;;;;;;;;;;5092106;28;20201;-86
2023/04/22 00:35:07;;;;;;;19.03;13.93;;;;;;;;;;5092107;28;20215;-87
2023/04/22 00:37:35;;;;;;;26.07;20.50;;;;;;;;;;5091770;28;20206;-87
2023/04/22 00:40:07;;;;;;;24.43;18.33;;;;;;;;;;5092108;28;20295;-87
2023/04/22 00:42:35;;;;;;;18.53;13.90;;;;;;;;;;5092066;28;20200;-87
2023/04/22 00:45:04;;;;;;;28.20;23.07;;;;;;;;;;5092311;28;20206;-87
2023/04/22 00:47:33;;;;;;;22.43;17.93;;;;;;;;;;5091982;28;20196;-87
2023/04/22 00:50:02;;;;;;;27.10;20.80;;;;;;;;;;5092634;28;20261;-87
2023/04/22 00:52:30;;;;;;;25.27;18.43;;;;;;;;;;5091884;28;20284;-86
2023/04/22 00:54:58;;;;;;;25.97;19.50;;;;;;;;;;5091946;28;20241;-87
2023/04/22 00:57:30;;;;;;;27.63;20.37;;;;;;;;;;5092226;28;20215;-87
2023/04/22 00:59:58;;;;;;;9.43;6.03;;;;;;;;;;5091875;28;20310;-86
2023/04/22 01:02:27;;;;;;;25.90;17.93;;;;;;;;;;5092075;28;20200;-86
2023/04/22 01:04:55;;;;;;;23.80;16.00;;;;;;;;;;5091864;28;20199;-86
2023/04/22 01:07:24;;;;;;;18.97;13.47;;;;;;;;;;5091644;28;20198;-86
2023/04/22 01:09:52;;;;;;;8.90;6.80;;;;;;;;;;5091322;28;20211;-87
2023/04/22 01:12:21;;;;;;;9.67;7.17;;;;;;;;;;5091340;28;20255;-87
2023/04/22 01:14:51;;;;;;;5.47;4.97;;;;;;;;;;5091796;28;20240;-86
2023/04/22 01:17:20;;;;;;;8.60;6.23;;;;;;;;;;5091673;28;20298;-86
2023/04/22 01:19:50;;;;;;;3.00;2.80;;;;;;;;;;5091600;28;20240;-86
2023/04/22 01:22:18;;;;;;;1.13;1.07;;;;;;;;;;5091354;28;20200;-87
2023/04/22 01:24:48;;;;;;;2.07;1.87;;;;;;;;;;5091898;28;20214;-87
2023/04/22 01:27:17;;;;;;;1.70;1.70;;;;;;;;;;5091293;28;20223;-86
2023/04/22 01:29:45;;;;;;;1.23;1.23;;;;;;;;;;5091722;28;20212;-87
2023/04/22 01:32:14;;;;;;;1.80;1.80;;;;;;;;;;5091942;28;20233;-87
2023/04/22 01:34:43;;;;;;;3.53;3.33;;;;;;;;;;5091040;28;20226;-86
2023/04/22 01:37:11;;;;;;;1.07;1.07;;;;;;;;;;5091830;28;20254;-86
2023/04/22 01:39:40;;;;;;;16.80;13.43;;;;;;;;;;5093141;28;20202;-87
2023/04/22 01:42:10;;;;;;;5.40;3.93;;;;;;;;;;5094860;28;20213;-86
2023/04/22 01:44:39;;;;;;;4.27;3.90;;;;;;;;;;5095357;28;20199;-87
2023/04/22 01:47:08;;;;;;;0.70;0.70;;;;;;;;;;5095084;28;20194;-87
2023/04/22 01:49:36;;;;;;;4.23;3.23;;;;;;;;;;5094853;28;20203;-87
2023/04/22 01:52:05;;;;;;;1.10;1.10;;;;;;;;;;5095095;28;20208;-87
2023/04/22 01:54:34;;;;;;;0.90;0.90;;;;;;;;;;5095250;28;20203;-87
2023/04/22 01:57:07;;;;;;;8.03;6.20;;;;;;;;;;5094775;28;20294;-87
2023/04/22 01:59:36;;;;;;;14.70;9.50;;;;;;;;;;5094846;28;20196;-87
2023/04/22 02:02:06;;;;;;;16.83;11.97;;;;;;;;;;5095215;28;20218;-87
2023/04/22 02:04:34;;;;;;;30.77;20.30;;;;;;;;;;5094835;28;20296;-87
2023/04/22 02:07:03;;;;;;;26.83;16.60;;;;;;;;;;5094041;28;20191;-86
2023/04/22 02:09:32;;;;;;;37.73;22.60;;;;;;;;;;5094630;28;20191;-86
2023/04/22 02:12:01;;;;;;;32.60;22.43;;;;;;;;;;5094638;28;20226;-87
2023/04/22 02:14:29;;;;;;;37.37;25.10;;;;;;;;;;5094475;28;20226;-86
2023/04/22 02:17:01;;;;;;;45.70;32.03;;;;;;;;;;5094424;28;20253;-86
2023/04/22 02:19:29;;;;;;;46.57;29.47;;;;;;;;;;5094697;28;20275;-87
2023/04/22 02:21:58;;;;;;;11.70;8.60;;;;;;;;;;5094452;28;20201;-86
2023/04/22 02:24:26;;;;;;;47.97;29.63;;;;;;;;;;5094123;28;20201;-86
2023/04/22 02:26:55;;;;;;;59.73;36.70;;;;;;;;;;5094288;28;20308;-86
2023/04/22 02:29:24;;;;;;;53.47;34.07;;;;;;;;;;5094190;28;20198;-86
2023/04/22 02:31:52;;;;;;;43.83;29.63;;;;;;;;;;5094369;28;20297;-86
2023/04/22 02:34:22;;;;;;;36.73;22.93;;;;;;;;;;5094504;28;20209;-86
2023/04/22 02:36:51;;;;;;;58.83;39.17;;;;;;;;;;5094115;28;20287;-86
2023/04/22 02:39:19;;;;;;;49.27;29.20;;;;;;;;;;5094178;28;20201;-86
2023/04/22 02:41:47;;;;;;;57.37;34.50;;;;;;;;;;5094281;28;20203;-86
2023/04/22 02:44:16;;;;;;;42.67;24.87;;;;;;;;;;5093457;28;20197;-87
2023/04/22 02:46:44;;;;;;;44.53;24.80;;;;;;;;;;5093776;28;20298;-87
2023/04/22 02:49:13;;;;;;;56.50;33.43;;;;;;;;;;5093891;28;20203;-87
2023/04/22 02:51:43;;;;;;;70.07;42.10;;;;;;;;;;5093974;28;20271;-86
2023/04/22 02:54:11;;;;;;;56.40;28.03;;;;;;;;;;5093454;28;20327;-86
2023/04/22 02:56:40;;;;;;;2.87;2.67;;;;;;;;;;5094092;28;20312;-87
2023/04/22 02:59:08;;;;;;;2.53;2.40;;;;;;;;;;5093739;28;20202;-87
2023/04/22 03:01:36;;;;;;;1.10;1.10;;;;;;;;;;5093318;28;20216;-87
2023/04/22 03:04:05;;;;;;;1.67;1.67;;;;;;;;;;5093952;28;20242;-87
2023/04/22 03:06:34;;;;;;;3.50;2.40;;;;;;;;;;5093724;28;20211;-87
2023/04/22 03:09:04;;;;;;;21.57;14.70;;;;;;;;;;5092861;28;20209;-87
2023/04/22 03:11:32;;;;;;;34.37;19.90;;;;;;;;;;5093350;28;20220;-87
2023/04/22 03:14:01;;;;;;;64.07;33.50;;;;;;;;;;5093107;28;20213;-88
2023/04/22 03:16:29;;;;;;;59.03;31.90;;;;;;;;;;5092693;28;20218;-87
2023/04/22 03:18:58;;;;;;;39.57;22.97;;;;;;;;;;5093128;28;20195;-87
2023/04/22 03:21:27;;;;;;;36.27;19.17;;;;;;;;;;5093130;28;20296;-87
2023/04/22 03:23:55;;;;;;;25.07;12.83;;;;;;;;;;5092989;28;20300;-87
2023/04/22 03:26:25;;;;;;;8.10;7.30;;;;;;;;;;5093420;28;20198;-87
2023/04/22 03:28:54;;;;;;;4.77;4.13;;;;;;;;;;5093199;28;20233;-87
2023/04/22 03:31:22;;;;;;;8.23;5.20;;;;;;;;;;5092820;28;20292;-86
2023/04/22 03:33:50;;;;;;;4.10;3.90;;;;;;;;;;5092797;28;20197;-86
2023/04/22 03:36:20;;;;;;;8.40;2.97;;;;;;;;;;5092733;28;20229;-87
2023/04/22 03:38:48;;;;;;;1.27;1.23;;;;;;;;;;5092616;28;20199;-86
2023/04/22 03:41:17;;;;;;;1.17;1.17;;;;;;;;;;5092884;28;20298;-87
2023/04/22 03:43:47;;;;;;;2.87;2.57;;;;;;;;;;5092859;28;20202;-86
2023/04/22 03:46:20;;;;;;;1.40;1.00;;;;;;;;;;5092759;28;20220;-86
2023/04/22 03:48:48;;;;;;;1.20;1.20;;;;;;;;;;5092260;28;20199;-86
2023/04/22 03:51:17;;;;;;;1.37;1.37;;;;;;;;;;5092510;28;20201;-86
2023/04/22 03:53:45;;;;;;;0.80;0.80;;;;;;;;;;5092085;28;20266;-86
2023/04/22 03:56:14;;;;;;;0.70;0.70;;;;;;;;;;5092027;28;20254;-86
2023/04/22 03:58:42;;;;;;;3.23;3.03;;;;;;;;;;5092090;28;20250;-86
2023/04/22 04:01:12;;;;;;;0.70;0.70;;;;;;;;;;5092605;28;20190;-86
2023/04/22 04:03:40;;;;;;;1.43;1.43;;;;;;;;;;5091267;28;20237;-86
2023/04/22 04:06:09;;;;;;;0.70;0.70;;;;;;;;;;5092238;28;20198;-86
2023/04/22 04:08:37;;;;;;;2.43;2.33;;;;;;;;;;5092384;28;20286;-85
2023/04/22 04:11:06;;;;;;;2.30;2.10;;;;;;;;;;5092211;28;20201;-84
2023/04/22 04:13:35;;;;;;;2.00;2.00;;;;;;;;;;5092498;28;20206;-86
2023/04/22 04:16:03;;;;;;;2.13;2.13;;;;;;;;;;5092317;28;20202;-85
2023/04/22 04:18:33;;;;;;;3.70;1.17;;;;;;;;;;5092087;28;20304;-87
2023/04/22 04:21:01;;;;;;;0.87;0.87;;;;;;;;;;5091928;28;20210;-86
2023/04/22 04:23:31;;;;;;;1.00;1.00;;;;;;;;;;5092524;28;20201;-86
2023/04/22 04:26:01;;;;;;;2.33;2.23;;;;;;;;;;5091855;28;20302;-86
2023/04/22 04:28:31;;;;;;;4.50;4.17;;;;;;;;;;5092074;28;20254;-86
2023/04/22 04:31:01;;;;;;;1.83;1.73;;;;;;;;;;5092048;28;20202;-86
2023/04/22 04:33:31;;;;;;;41.97;22.30;;;;;;;;;;5091826;28;20198;-86
2023/04/22 04:36:01;;;;;;;119.93;36.17;;;;;;;;;;5091732;28;20201;-86
2023/04/22 04:38:30;;;;;;;102.67;27.30;;;;;;;;;;5091542;28;20193;-86
2023/04/22 04:40:58;;;;;;;193.53;34.17;;;;;;;;;;5091787;28;20201;-87
2023/04/22 04:43:28;;;;;;;67.97;24.93;;;;;;;;;;5091942;28;20336;-86
2023/04/22 04:45:56;;;;;;;8.70;7.50;;;;;;;;;;5091696;28;20203;-86
2023/04/22 04:48:25;;;;;;;6.67;5.97;;;;;;;;;;5091829;28;20309;-86
2023/04/22 04:50:54;;;;;;;2.00;1.90;;;;;;;;;;5091475;28;20206;-86
2023/04/22 04:53:23;;;;;;;8.87;4.70;;;;;;;;;;5091774;28;20286;-87
2023/04/22 04:55:52;;;;;;;2.60;2.43;;;;;;;;;;5091833;28;20197;-87
2023/04/22 04:58:20;;;;;;;4.00;3.77;;;;;;;;;;5091555;28;20252;-86
2023/04/22 05:00:51;;;;;;;7.53;6.87;;;;;;;;;;5092395;28;20231;-87
2023/04/22 05:03:20;;;;;;;4.53;4.13;;;;;;;;;;5091981;28;20224;-87
2023/04/22 05:05:49;;;;;;;4.10;3.90;;;;;;;;;;5091393;28;20195;-87
2023/04/22 05:08:17;;;;;;;1.57;1.57;;;;;;;;;;5091600;28;20202;-87
2023/04/22 05:10:47;;;;;;;1.83;1.73;;;;;;;;;;5091951;28;20218;-86
2023/04/22 05:13:16;;;;;;;1.97;1.87;;;;;;;;;;5091677;28;20230;-87
2023/04/22 05:15:44;;;;;;;2.37;1.20;;;;;;;;;;5094889;28;20236;-87
2023/04/22 05:18:13;;;;;;;1.47;1.47;;;;;;;;;;5095369;28;20281;-87
2023/04/22 05:20:41;;;;;;;1.80;1.80;;;;;;;;;;5095353;28;20211;-87
2023/04/22 05:23:10;;;;;;;2.10;2.00;;;;;;;;;;5095984;28;20232;-87
2023/04/22 05:25:38;;;;;;;4.00;3.80;;;;;;;;;;5095501;28;20198;-87
2023/04/22 05:28:08;;;;;;;2.43;2.23;;;;;;;;;;5095850;28;20247;-87
2023/04/22 05:30:36;;;;;;;2.17;1.93;;;;;;;;;;5095504;28;20251;-87
2023/04/22 05:33:07;;;;;;;8.27;3.97;;;;;;;;;;5095645;28;20198;-87
2023/04/22 05:35:35;;;;;;;3.77;2.40;;;;;;;;;;5095413;28;20189;-87
2023/04/22 05:38:04;;;;;;;3.50;3.20;;;;;;;;;;5094993;28;20215;-87
2023/04/22 05:40:32;;;;;;;8.17;4.60;;;;;;;;;;5095508;28;20195;-87
2023/04/22 05:43:00;;;;;;;8.80;4.20;;;;;;;;;;5096141;28;20227;-87
2023/04/22 05:45:30;;;;;;;2.23;2.13;;;;;;;;;;5095002;28;20234;-86
2023/04/22 05:47:58;;;;;;;2.70;1.83;;;;;;;;;;5095204;28;20198;-87
2023/04/22 05:50:27;;;;;;;13.20;6.90;;;;;;;;;;5095028;28;20214;-86
2023/04/22 05:52:55;;;;;;;7.70;6.07;;;;;;;;;;5094583;28;20326;-87
2023/04/22 05:55:24;;;;;;;1.73;1.63;;;;;;;;;;5095252;28;20210;-87
2023/04/22 05:57:52;;;;;;;5.70;5.10;;;;;;;;;;5094949;28;20219;-87
2023/04/22 06:00:21;;;;;;;6.30;5.67;;;;;;;;;;5094592;28;20301;-87
2023/04/22 06:02:50;;;;;;;5.60;4.00;;;;;;;;;;5095053;28;20255;-87
2023/04/22 06:05:19;;;;;;;4.23;4.00;;;;;;;;;;5094928;28;20220;-87
2023/04/22 06:07:48;;;;;;;1.90;1.80;;;;;;;;;;5094847;28;20262;-87
2023/04/22 06:10:16;;;;;;;1.63;1.63;;;;;;;;;;5094515;28;20233;-87
2023/04/22 06:12:45;;;;;;;5.10;4.73;;;;;;;;;;5094699;28;20298;-87
2023/04/22 06:15:13;;;;;;;4.20;3.80;;;;;;;;;;5094640;28;20200;-86
2023/04/22 06:17:43;;;;;;;1.73;1.73;;;;;;;;;;5094172;28;20218;-87
2023/04/22 06:20:13;;;;;;;3.43;3.20;;;;;;;;;;5094679;28;20206;-87
2023/04/22 06:22:41;;;;;;;6.40;3.53;;;;;;;;;;5093959;28;20195;-87
2023/04/22 06:25:10;;;;;;;17.53;11.37;;;;;;;;;;5093212;28;20304;-87
2023/04/22 06:27:38;;;;;;;5.27;4.53;;;;;;;;;;5094746;28;20218;-87
2023/04/22 06:30:08;;;;;;;6.27;5.67;;;;;;;;;;5094720;28;20269;-87
2023/04/22 06:32:37;;;;;;;2.47;2.37;;;;;;;;;;5094060;28;20190;-87
2023/04/22 06:35:06;;;;;;;7.27;6.43;;;;;;;;;;5094022;28;20285;-87
2023/04/22 06:37:36;;;;;;;8.97;6.70;;;;;;;;;;5094117;28;20215;-87
2023/04/22 06:40:04;;;;;;;3.57;3.27;;;;;;;;;;5094155;28;20233;-87
2023/04/22 06:42:33;;;;;;;1.90;1.83;;;;;;;;;;5093926;28;20266;-86
2023/04/22 06:45:01;;;;;;;1.53;1.53;;;;;;;;;;5094151;28;20202;-87
2023/04/22 06:47:30;;;;;;;0.70;0.70;;;;;;;;;;5093509;28;20196;-87
2023/04/22 06:49:58;;;;;;;2.93;2.07;;;;;;;;;;5093815;28;20235;-86
2023/04/22 06:52:27;;;;;;;3.20;3.10;;;;;;;;;;5093660;28;20231;-86
2023/04/22 06:54:56;;;;;;;3.40;1.87;;;;;;;;;;5093992;28;20265;-86
2023/04/22 06:57:25;;;;;;;5.27;4.57;;;;;;;;;;5093934;28;20208;-86
2023/04/22 06:59:53;;;;;;;3.33;3.03;;;;;;;;;;5093767;28;20201;-87
2023/04/22 07:02:22;;;;;;;7.03;2.83;;;;;;;;;;5093822;28;20242;-86
2023/04/22 07:04:51;;;;;;;2.57;2.27;;;;;;;;;;5093674;28;20200;-86
2023/04/22 07:07:19;;;;;;;4.27;3.97;;;;;;;;;;5093698;28;20205;-86
2023/04/22 07:09:47;;;;;;;4.97;4.57;;;;;;;;;;5093608;28;20281;-87
2023/04/22 07:12:17;;;;;;;1.23;1.13;;;;;;;;;;5093399;28;20223;-87
2023/04/22 07:14:46;;;;;;;2.60;2.40;;;;;;;;;;5093485;28;20238;-86
2023/04/22 07:17:18;;;;;;;8.97;7.63;;;;;;;;;;5093483;28;20215;-87
2023/04/22 07:19:46;;;;;;;7.00;4.83;;;;;;;;;;5093208;28;20224;-86
2023/04/22 07:22:15;;;;;;;3.07;2.87;;;;;;;;;;5093557;28;20272;-87
2023/04/22 07:24:43;;;;;;;6.03;4.13;;;;;;;;;;5093836;28;20201;-86
2023/04/22 07:27:11;;;;;;;8.97;3.27;;;;;;;;;;5092633;28;20217;-87
2023/04/22 07:29:41;;;;;;;2.27;2.13;;;;;;;;;;5093396;28;20193;-87
2023/04/22 07:32:10;;;;;;;1.70;1.70;;;;;;;;;;5092946;28;20238;-86
2023/04/22 07:34:38;;;;;;;2.70;2.60;;;;;;;;;;5092928;28;20197;-86
2023/04/22 07:37:08;;;;;;;10.10;8.70;;;;;;;;;;5092107;28;20246;-87
2023/04/22 07:39:36;;;;;;;2.17;2.00;;;;;;;;;;5093193;28;20220;-86
2023/04/22 07:42:06;;;;;;;6.03;3.80;;;;;;;;;;5093173;28;20398;-86
2023/04/22 07:44:34;;;;;;;6.37;5.77;;;;;;;;;;5093115;28;20201;-87
2023/04/22 07:47:08;;;;;;;8.70;6.87;;;;;;;;;;5093679;28;20216;-87
2023/04/22 07:49:36;;;;;;;2.93;2.73;;;;;;;;;;5092510;28;20220;-86
2023/04/22 07:52:05;;;;;;;1.27;1.27;;;;;;;;;;5092062;28;20189;-87
2023/04/22 07:54:34;;;;;;;1.60;1.50;;;;;;;;;;5072948;28;20276;-86
2023/04/22 07:57:02;;;;;;;5.50;3.10;;;;;;;;;;5072205;28;20210;-87
2023/04/22 07:59:31;;;;;;;0.97;0.97;;;;;;;;;;5071810;28;20273;-87
2023/04/22 08:01:59;;;;;;;5.40;4.43;;;;;;;;;;5072729;28;20198;-87
2023/04/22 08:04:29;;;;;;;3.00;2.90;;;;;;;;;;5072530;28;20201;-88
2023/04/22 08:06:58;;;;;;;2.20;2.10;;;;;;;;;;5071767;28;20198;-88
2023/04/22 08:09:27;;;;;;;13.57;11.30;;;;;;;;;;5072106;28;20206;-88
2023/04/22 08:11:56;;;;;;;15.40;13.43;;;;;;;;;;5072081;28;20202;-87
2023/04/22 08:14:25;;;;;;;19.47;16.77;;;;;;;;;;5071950;28;20305;-87
2023/04/22 08:16:54;;;;;;;13.87;11.77;;;;;;;;;;5072180;28;20224;-87
2023/04/22 08:19:22;;;;;;;17.33;12.30;;;;;;;;;;5071642;28;20256;-87
2023/04/22 08:21:52;;;;;;;3.20;3.00;;;;;;;;;;5072151;28;20236;-87
2023/04/22 08:24:21;;;;;;;10.27;8.30;;;;;;;;;;5071558;28;20316;-87
2023/04/22 08:26:49;;;;;;;2.90;2.10;;;;;;;;;;5071967;28;20245;-87
2023/04/22 08:29:17;;;;;;;1.43;1.43;;;;;;;;;;5071583;28;20195;-87
2023/04/22 08:31:46;;;;;;;10.33;7.00;;;;;;;;;;5071750;28;20202;-88
2023/04/22 08:34:14;;;;;;;9.33;5.77;;;;;;;;;;5071657;28;20237;-87
2023/04/22 08:36:43;;;;;;;2.27;1.73;;;;;;;;;;5071495;28;20233;-87
2023/04/22 08:39:12;;;;;;;5.43;4.50;;;;;;;;;;5071569;28;20232;-87
2023/04/22 08:41:42;;;;;;;4.77;4.33;;;;;;;;;;5071735;28;20207;-87
2023/04/22 08:44:11;;;;;;;2.43;2.23;;;;;;;;;;5071533;28;20204;-88
2023/04/22 08:46:41;;;;;;;6.37;4.23;;;;;;;;;;5071682;28;20199;-87
2023/04/22 08:49:09;;;;;;;1.93;1.93;;;;;;;;;;5071488;28;20230;-87
2023/04/22 08:51:38;;;;;;;1.37;1.37;;;;;;;;;;5071482;28;20233;-87
2023/04/22 08:54:07;;;;;;;1.33;1.23;;;;;;;;;;5087154;28;20244;-89
2023/04/22 08:56:37;;;;;;;11.77;9.63;;;;;;;;;;5092089;28;20197;-87
2023/04/22 08:59:06;;;;;;;1.13;1.13;;;;;;;;;;5091360;28;20214;-87
2023/04/22 09:01:34;;;;;;;4.13;2.63;;;;;;;;;;5091310;28;20197;-88
2023/04/22 09:04:04;;;;;;;2.73;1.60;;;;;;;;;;5091434;28;20213;-87
2023/04/22 09:06:32;;;;;;;7.53;5.60;;;;;;;;;;5091619;28;20203;-87
2023/04/22 09:09:01;;;;;;;3.27;3.00;;;;;;;;;;5091607;28;20194;-88
2023/04/22 09:11:29;;;;;;;2.57;1.43;;;;;;;;;;5091532;28;20294;-88
2023/04/22 09:13:59;;;;;;;1.40;1.30;;;;;;;;;;5091533;28;20273;-88
2023/04/22 09:16:30;;;;;;;3.03;2.20;;;;;;;;;;5091044;28;20278;-87
2023/04/22 09:19:00;;;;;;;2.30;2.10;;;;;;;;;;5090948;28;20215;-88
2023/04/22 09:21:28;;;;;;;4.43;1.33;;;;;;;;;;5091691;28;20199;-88
2023/04/22 09:23:58;;;;;;;0.73;0.70;;;;;;;;;;5091315;28;20208;-87
2023/04/22 09:26:26;;;;;;;2.00;1.90;;;;;;;;;;5091128;28;20200;-88
2023/04/22 09:28:57;;;;;;;0.60;0.60;;;;;;;;;;5091080;28;20269;-88
2023/04/22 09:31:28;;;;;;;3.00;2.40;;;;;;;;;;5091377;28;20204;-87
2023/04/22 09:33:57;;;;;;;2.23;2.13;;;;;;;;;;5091275;28;20227;-88
2023/04/22 09:36:27;;;;;;;1.63;1.53;;;;;;;;;;5090792;28;20215;-88
2023/04/22 09:38:56;;;;;;;0.57;0.57;;;;;;;;;;5091558;28;20205;-88
2023/04/22 09:41:28;;;;;;;4.03;3.43;;;;;;;;;;5091226;28;20278;-88
2023/04/22 09:43:57;;;;;;;5.03;3.27;;;;;;;;;;5091389;28;20205;-88
2023/04/22 09:46:28;;;;;;;1.30;1.30;;;;;;;;;;5091196;28;20201;-88
2023/04/22 09:48:57;;;;;;;3.93;3.13;;;;;;;;;;5090646;28;20234;-88
2023/04/22 09:51:26;;;;;;;1.53;1.53;;;;;;;;;;5091229;28;20258;-88
2023/04/22 09:53:59;;;;;;;0.70;0.70;;;;;;;;;;5090688;28;20239;-87
2023/04/22 09:56:45;;;;;;;1.97;1.87;;;;;;;;;;5090945;28;20297;-88
2023/04/22 09:59:14;;;;;;;3.73;2.57;;;;;;;;;;5091127;28;20197;-88
2023/04/22 10:01:44;;;;;;;3.53;3.23;;;;;;;;;;5093630;28;20200;-88
2023/04/22 10:04:14;;;;;;;2.13;2.03;;;;;;;;;;5094042;28;20189;-88
2023/04/22 10:06:45;;;;;;;2.83;2.63;;;;;;;;;;5094879;28;20267;-88
2023/04/22 10:09:13;;;;;;;1.37;1.37;;;;;;;;;;5095073;28;20208;-88
2023/04/22 10:11:42;;;;;;;0.73;0.73;;;;;;;;;;5094454;28;20197;-87
2023/04/22 10:14:12;;;;;;;3.97;3.63;;;;;;;;;;5094638;28;20211;-88
2023/04/22 10:16:42;;;;;;;1.33;1.33;;;;;;;;;;5094856;28;20290;-87
2023/04/22 10:19:15;;;;;;;3.90;3.10;;;;;;;;;;5094472;28;20201;-87
2023/04/22 10:21:47;;;;;;;2.17;1.77;;;;;;;;;;5094850;28;20206;-87
2023/04/22 10:24:17;;;;;;;1.53;1.53;;;;;;;;;;5094587;28;20306;-87
2023/04/22 10:26:49;;;;;;;1.40;1.30;;;;;;;;;;5094476;28;20219;-87
2023/04/22 10:29:19;;;;;;;1.17;1.17;;;;;;;;;;5094189;28;20204;-87
2023/04/22 10:31:52;;;;;;;3.70;3.40;;;;;;;;;;5094108;28;20234;-87
2023/04/22 10:34:22;;;;;;;2.20;2.10;;;;;;;;;;5094462;28;20224;-87
2023/04/22 10:36:58;;;;;;;0.63;0.63;;;;;;;;;;5094322;28;20203;-87
2023/04/22 10:39:27;;;;;;;2.47;2.27;;;;;;;;;;5094432;28;20225;-87
2023/04/22 10:42:05;;;;;;;3.83;1.77;;;;;;;;;;5094606;28;20193;-87
2023/04/22 10:44:47;;;;;;;3.13;2.13;;;;;;;;;;5094632;28;20204;-87
2023/04/22 10:47:25;;;;;;;3.37;3.17;;;;;;;;;;5094284;28;20228;-88
2023/04/22 10:50:08;;;;;;;2.23;2.13;;;;;;;;;;5093576;28;20220;-88
2023/04/22 10:52:38;;;;;;;2.60;2.37;;;;;;;;;;5094032;28;20206;-87
2023/04/22 10:55:07;;;;;;;6.70;5.93;;;;;;;;;;5093896;28;20232;-88
2023/04/22 10:57:40;;;;;;;8.43;7.27;;;;;;;;;;5093933;28;20204;-89
2023/04/22 11:00:25;;;;;;;2.33;2.07;;;;;;;;;;5093722;28;20221;-88
2023/04/22 11:03:09;;;;;;;5.17;4.57;;;;;;;;;;5094485;28;20196;-88
2023/04/22 11:05:38;;;;;;;8.73;5.70;;;;;;;;;;5093429;28;20227;-88
2023/04/22 11:08:09;;;;;;;5.20;4.10;;;;;;;;;;5093732;28;20320;-88
2023/04/22 11:10:42;;;;;;;8.73;6.27;;;;;;;;;;5093543;28;20247;-88
2023/04/22 11:13:12;;;;;;;7.90;6.77;;;;;;;;;;5093785;28;20206;-88
2023/04/22 11:15:42;;;;;;;7.20;5.50;;;;;;;;;;5093128;28;20257;-88
2023/04/22 11:18:12;;;;;;;8.67;7.60;;;;;;;;;;5093747;28;20273;-88
2023/04/22 11:20:40;;;;;;;4.87;4.57;;;;;;;;;;5093760;28;20231;-88
2023/04/22 11:23:10;;;;;;;8.13;6.77;;;;;;;;;;5093419;28;20290;-88
2023/04/22 11:25:39;;;;;;;6.90;4.00;;;;;;;;;;5093427;28;20200;-88
2023/04/22 11:28:07;;;;;;;6.03;4.17;;;;;;;;;;5093451;28;20249;-88
2023/04/22 11:30:35;;;;;;;9.40;7.67;;;;;;;;;;5093000;28;20242;-88
2023/04/22 11:33:05;;;;;;;7.53;5.47;;;;;;;;;;5093542;28;20206;-88
2023/04/22 11:35:34;;;;;;;7.03;6.13;;;;;;;;;;5093113;28;20271;-88
2023/04/22 11:38:03;;;;;;;7.80;5.67;;;;;;;;;;5092940;28;20236;-88
2023/04/22 11:40:34;;;;;;;7.50;6.63;;;;;;;;;;5093251;28;20218;-88
2023/04/22 11:43:07;;;;;;;3.37;3.07;;;;;;;;;;5092736;28;20193;-88
2023/04/22 11:45:37;;;;;;;13.93;9.07;;;;;;;;;;5093008;28;20216;-87
2023/04/22 11:48:06;;;;;;;10.13;8.57;;;;;;;;;;5092768;28;20202;-88
2023/04/22 11:50:36;;;;;;;2.73;2.53;;;;;;;;;;5093130;28;20225;-88
2023/04/22 11:53:05;;;;;;;6.23;4.50;;;;;;;;;;5092931;28;20321;-88
2023/04/22 11:55:35;;;;;;;15.80;12.57;;;;;;;;;;5093264;28;20197;-87
2023/04/22 11:58:07;;;;;;;12.67;9.77;;;;;;;;;;5092784;28;20202;-88
2023/04/22 12:00:36;;;;;;;10.10;6.13;;;;;;;;;;5092817;28;20292;-88
2023/04/22 12:03:06;;;;;;;9.53;7.93;;;;;;;;;;5092985;28;20200;-88
2023/04/22 12:05:39;;;;;;;5.90;4.47;;;;;;;;;;5092888;28;20201;-88
2023/04/22 12:08:09;;;;;;;21.27;15.37;;;;;;;;;;5093023;28;20297;-88
2023/04/22 12:10:42;;;;;;;13.20;8.60;;;;;;;;;;5092362;28;20229;-88
2023/04/22 12:13:11;;;;;;;13.83;8.93;;;;;;;;;;5092529;28;20207;-88
2023/04/22 12:15:41;;;;;;;6.67;6.00;;;;;;;;;;5092477;28;20213;-88
2023/04/22 12:18:10;;;;;;;20.83;13.93;;;;;;;;;;5092076;28;20251;-88
2023/04/22 12:20:39;;;;;;;15.87;11.40;;;;;;;;;;5092431;28;20259;-88
2023/04/22 12:23:13;;;;;;;7.40;6.50;;;;;;;;;;5092890;28;20211;-89
2023/04/22 12:25:43;;;;;;;13.73;10.00;;;;;;;;;;5091917;28;20200;-88
2023/04/22 12:28:13;;;;;;;19.07;14.53;;;;;;;;;;5091740;28;20286;-89
2023/04/22 12:30:41;;;;;;;17.47;14.50;;;;;;;;;;5092162;28;20231;-89
2023/04/22 12:33:10;;;;;;;9.80;7.97;;;;;;;;;;5092164;28;20292;-88
2023/04/22 12:35:38;;;;;;;14.80;10.63;;;;;;;;;;5092183;28;20193;-88
2023/04/22 12:38:07;;;;;;;31.00;19.20;;;;;;;;;;5091949;28;20208;-88
2023/04/22 12:40:36;;;;;;;10.53;8.13;;;;;;;;;;5091563;28;20284;-87
2023/04/22 12:43:05;;;;;;;17.20;11.20;;;;;;;;;;5091974;28;20204;-88
2023/04/22 12:45:34;;;;;;;4.97;4.40;;;;;;;;;;5092273;28;20197;-88
2023/04/22 12:48:02;;;;;;;12.77;9.00;;;;;;;;;;5091782;28;20228;-87
2023/04/22 12:50:31;;;;;;;25.70;14.57;;;;;;;;;;5092454;28;20200;-88
2023/04/22 12:52:59;;;;;;;8.07;7.50;;;;;;;;;;5092460;28;20237;-87
2023/04/22 12:55:27;;;;;;;21.17;14.53;;;;;;;;;;5091797;28;20294;-87
2023/04/22 12:57:56;;;;;;;18.00;10.33;;;;;;;;;;5091669;28;20317;-87
2023/04/22 13:00:26;;;;;;;17.80;13.10;;;;;;;;;;5091890;28;20195;-87
2023/04/22 13:02:55;;;;;;;13.30;11.03;;;;;;;;;;5091621;28;20204;-86
2023/04/22 13:05:23;;;;;;;24.50;15.53;;;;;;;;;;5092143;28;20193;-86
2023/04/22 13:07:52;;;;;;;24.67;15.77;;;;;;;;;;5091918;28;20294;-86
2023/04/22 13:10:33;;;;;;;26.37;17.40;;;;;;;;;;5091609;28;20208;-86
2023/04/22 13:13:03;;;;;;;10.10;9.10;;;;;;;;;;5091131;28;20220;-86
2023/04/22 13:15:51;;;;;;;0.60;0.60;;;;;;;;;;5091401;28;20197;-86
2023/04/22 13:18:20;;;;;;;0.83;0.83;;;;;;;;;;5091629;28;20212;-86
2023/04/22 13:20:49;;;;;;;0.80;0.80;;;;;;;;;;5091722;28;20204;-86
2023/04/22 13:23:20;;;;;;;0.70;0.70;;;;;;;;;;5091726;28;20257;-86
2023/04/22 13:25:49;;;;;;;0.60;0.60;;;;;;;;;;5091397;28;20246;-86
2023/04/22 13:28:17;;;;;;;0.60;0.60;;;;;;;;;;5091863;28;20220;-86
2023/04/22 13:30:47;;;;;;;0.70;0.70;;;;;;;;;;5091678;28;20201;-86
2023/04/22 13:33:15;;;;;;;0.60;0.60;;;;;;;;;;5091392;28;20290;-86
2023/04/22 13:35:44;;;;;;;0.70;0.70;;;;;;;;;;5092743;28;20223;-87
2023/04/22 13:38:12;;;;;;;0.70;0.70;;;;;;;;;;5095303;28;20201;-86
2023/04/22 13:40:41;;;;;;;0.70;0.70;;;;;;;;;;5095570;28;20286;-86
2023/04/22 13:43:09;;;;;;;0.53;0.53;;;;;;;;;;5095029;28;20279;-87
2023/04/22 13:45:39;;;;;;;0.60;0.60;;;;;;;;;;5095286;28;20205;-86
2023/04/22 13:48:09;;;;;;;0.60;0.60;;;;;;;;;;5095255;28;20212;-86
2023/04/22 13:50:41;;;;;;;0.60;0.60;;;;;;;;;;5095259;28;20204;-87
2023/04/22 13:53:10;;;;;;;0.60;0.60;;;;;;;;;;5094899;28;20237;-87
2023/04/22 13:55:39;;;;;;;3.07;2.97;;;;;;;;;;5095245;28;20268;-88
2023/04/22 13:58:08;;;;;;;0.70;0.70;;;;;;;;;;5095158;28;20197;-88
2023/04/22 14:00:36;;;;;;;0.60;0.60;;;;;;;;;;5095482;28;20233;-88
2023/04/22 14:03:05;;;;;;;0.60;0.60;;;;;;;;;;5094885;28;20196;-88
2023/04/22 14:05:35;;;;;;;0.97;0.97;;;;;;;;;;5095022;28;20296;-88
2023/04/22 14:08:04;;;;;;;0.70;0.70;;;;;;;;;;5094530;28;20204;-88
2023/04/22 14:10:32;;;;;;;0.60;0.60;;;;;;;;;;5095155;28;20229;-88
2023/04/22 14:13:01;;;;;;;0.50;0.50;;;;;;;;;;5094644;28;20221;-88
2023/04/22 14:15:29;;;;;;;0.60;0.60;;;;;;;;;;5094968;28;20209;-88
2023/04/22 14:17:57;;;;;;;0.60;0.60;;;;;;;;;;5094923;28;20246;-88
2023/04/22 14:20:26;;;;;;;0.60;0.60;;;;;;;;;;5094202;28;20193;-88
2023/04/22 14:22:56;;;;;;;0.60;0.60;;;;;;;;;;5094330;28;20300;-88
2023/04/22 14:25:24;;;;;;;0.60;0.60;;;;;;;;;;5094099;28;20197;-88
2023/04/22 14:27:53;;;;;;;0.60;0.60;;;;;;;;;;5093977;28;20278;-88
2023/04/22 14:30:21;;;;;;;0.70;0.70;;;;;;;;;;5094089;28;20212;-88
2023/04/22 14:32:50;;;;;;;0.60;0.60;;;;;;;;;;5094518;28;20301;-88
2023/04/22 14:35:18;;;;;;;0.60;0.60;;;;;;;;;;5094332;28;20211;-88
2023/04/22 14:37:47;;;;;;;0.60;0.60;;;;;;;;;;5094098;28;20225;-88
2023/04/22 14:40:18;;;;;;;0.60;0.60;;;;;;;;;;5094410;28;20196;-88
2023/04/22 14:42:47;;;;;;;0.50;0.50;;;;;;;;;;5093995;28;20199;-88
2023/04/22 14:45:15;;;;;;;0.60;0.60;;;;;;;;;;5094167;28;20284;-88
2023/04/22 14:47:43;;;;;;;0.60;0.60;;;;;;;;;;5093662;28;20220;-89